sensor_id;sensor_type;location;lat;lon;timestamp;temperature;humidity
18218;DHT22;9234;49.344;11.120;2023-10-09T00:00:16;12.10;99.90
18218;DHT22;9234;49.344;11.120;2023-10-09T00:03:02;12.10;99.90
18218;DHT22;9234;49.344;11.120;2023-10-09T00:05:33;12.10;99.90
18218;DHT22;9234;49.344;11.120;2023-10-09T00:08:13;12.00;99.90
18218;DHT22;9234;49.344;11.120;2023-10-09T00:10:46;12.00;99.90
18218;DHT22;9234;49.344;11.120;2023-10-09T00:13:20;12.00;99.90
18218;DHT22;9234;49.344;11.120;2023-10-09T00:15:57;12.00;99.90
18218;DHT22;9234;49.344;11.120;2023-10-09T00:18:40;12.00;99.90
18218;DHT22;9234;49.344;11.120;2023-10-09T00:21:14;12.00;99.90
18218;DHT22;9234;49.344;11.120;2023-10-09T00:23:42;12.00;99.90
18218;DHT22;9234;49.344;11.120;2023-10-09T00:26:10;12.00;99.90
18218;DHT22;9234;49.344;11.120;2023-10-09T00:28:50;12.00;99.90
18218;DHT22;9234;49.344;11.120;2023-10-09T00:31:20;12.00;99.90
18218;DHT22;9234;49.344;11.120;2023-10-09T00:33:57;12.00;99.90
18218;DHT22;9234;49.344;11.120;2023-10-09T00:36:34;12.00;99.90
18218;DHT22;9234;49.344;11.120;2023-10-09T00:39:17;12.00;99.90
18218;DHT22;9234;49.344;11.120;2023-10-09T00:42:00;12.00;99.90
18218;DHT22;9234;49.344;11.120;2023-10-09T00:44:28;12.00;99.90
18218;DHT22;9234;49.344;11.120;2023-10-09T00:47:07;12.00;99.90
18218;DHT22;9234;49.344;11.120;2023-10-09T00:49:51;12.00;99.90
18218;DHT22;9234;49.344;11.120;2023-10-09T00:52:28;12.00;99.90
18218;DHT22;9234;49.344;11.120;2023-10-09T00:55:05;12.00;99.90
18218;DHT22;9234;49.344;11.120;2023-10-09T00:57:43;12.00;99.90
18218;DHT22;9234;49.344;11.120;2023-10-09T01:00:23;12.00;99.90
18218;DHT22;9234;49.344;11.120;2023-10-09T01:03:02;12.00;99.90
18218;DHT22;9234;49.344;11.120;2023-10-09T01:05:47;12.00;99.90
18218;DHT22;9234;49.344;11.120;2023-10-09T01:08:25;12.10;99.90
18218;DHT22;9234;49.344;11.120;2023-10-09T01:10:57;12.10;99.90
18218;DHT22;9234;49.344;11.120;2023-10-09T01:13:35;12.10;99.90
18218;DHT22;9234;49.344;11.120;2023-10-09T01:16:21;12.10;99.90
18218;DHT22;9234;49.344;11.120;2023-10-09T01:18:53;12.10;99.90
18218;DHT22;9234;49.344;11.120;2023-10-09T01:21:24;12.10;99.90
18218;DHT22;9234;49.344;11.120;2023-10-09T01:23:55;12.10;99.90
18218;DHT22;9234;49.344;11.120;2023-10-09T01:26:31;12.10;99.90
18218;DHT22;9234;49.344;11.120;2023-10-09T01:29:07;12.20;99.90
18218;DHT22;9234;49.344;11.120;2023-10-09T01:31:37;12.20;99.90
18218;DHT22;9234;49.344;11.120;2023-10-09T01:34:11;12.20;99.90
18218;DHT22;9234;49.344;11.120;2023-10-09T01:36:42;12.20;99.90
18218;DHT22;9234;49.344;11.120;2023-10-09T01:39:11;12.20;99.90
18218;DHT22;9234;49.344;11.120;2023-10-09T01:41:50;12.20;99.90
18218;DHT22;9234;49.344;11.120;2023-10-09T01:44:26;12.20;99.90
18218;DHT22;9234;49.344;11.120;2023-10-09T01:47:01;12.20;99.90
18218;DHT22;9234;49.344;11.120;2023-10-09T01:49:34;12.20;99.90
18218;DHT22;9234;49.344;11.120;2023-10-09T01:52:04;12.20;99.90
18218;DHT22;9234;49.344;11.120;2023-10-09T01:54:38;12.20;99.90
18218;DHT22;9234;49.344;11.120;2023-10-09T01:57:08;12.20;99.90
18218;DHT22;9234;49.344;11.120;2023-10-09T01:59:40;12.20;99.90
18218;DHT22;9234;49.344;11.120;2023-10-09T02:02:12;12.30;99.90
18218;DHT22;9234;49.344;11.120;2023-10-09T02:04:53;12.30;99.90
18218;DHT22;9234;49.344;11.120;2023-10-09T02:07:30;12.30;99.90
18218;DHT22;9234;49.344;11.120;2023-10-09T02:10:10;12.30;99.90
18218;DHT22;9234;49.344;11.120;2023-10-09T02:12:48;12.30;99.90
18218;DHT22;9234;49.344;11.120;2023-10-09T02:15:25;12.30;99.90
18218;DHT22;9234;49.344;11.120;2023-10-09T02:18:08;12.30;99.90
18218;DHT22;9234;49.344;11.120;2023-10-09T02:20:47;12.30;99.90
18218;DHT22;9234;49.344;11.120;2023-10-09T02:23:27;12.30;99.90
18218;DHT22;9234;49.344;11.120;2023-10-09T02:26:07;12.30;99.90
18218;DHT22;9234;49.344;11.120;2023-10-09T02:28:42;12.30;99.90
18218;DHT22;9234;49.344;11.120;2023-10-09T02:31:11;12.30;99.90
18218;DHT22;9234;49.344;11.120;2023-10-09T02:33:40;12.30;99.90
18218;DHT22;9234;49.344;11.120;2023-10-09T02:36:09;12.30;99.90
18218;DHT22;9234;49.344;11.120;2023-10-09T02:38:40;12.30;99.90
18218;DHT22;9234;49.344;11.120;2023-10-09T02:41:10;12.30;99.90
18218;DHT22;9234;49.344;11.120;2023-10-09T02:43:55;12.30;99.90
18218;DHT22;9234;49.344;11.120;2023-10-09T02:46:24;12.30;99.90
18218;DHT22;9234;49.344;11.120;2023-10-09T02:49:01;12.30;99.90
18218;DHT22;9234;49.344;11.120;2023-10-09T02:51:31;12.30;99.90
18218;DHT22;9234;49.344;11.120;2023-10-09T02:54:03;12.30;99.90
18218;DHT22;9234;49.344;11.120;2023-10-09T02:56:47;12.30;99.90
18218;DHT22;9234;49.344;11.120;2023-10-09T02:59:23;12.30;99.90
18218;DHT22;9234;49.344;11.120;2023-10-09T03:01:52;12.30;99.90
18218;DHT22;9234;49.344;11.120;2023-10-09T03:04:20;12.30;99.90
18218;DHT22;9234;49.344;11.120;2023-10-09T03:06:51;12.30;99.90
18218;DHT22;9234;49.344;11.120;2023-10-09T03:09:20;12.30;99.90
18218;DHT22;9234;49.344;11.120;2023-10-09T03:11:57;12.30;99.90
18218;DHT22;9234;49.344;11.120;2023-10-09T03:14:32;12.30;99.90
18218;DHT22;9234;49.344;11.120;2023-10-09T03:17:05;12.30;99.90
18218;DHT22;9234;49.344;11.120;2023-10-09T03:19:38;12.30;99.90
18218;DHT22;9234;49.344;11.120;2023-10-09T03:22:07;12.30;99.90
18218;DHT22;9234;49.344;11.120;2023-10-09T03:24:37;12.20;99.90
18218;DHT22;9234;49.344;11.120;2023-10-09T03:27:10;12.20;99.90
18218;DHT22;9234;49.344;11.120;2023-10-09T03:29:38;12.20;99.90
18218;DHT22;9234;49.344;11.120;2023-10-09T03:32:07;12.20;99.90
18218;DHT22;9234;49.344;11.120;2023-10-09T03:34:35;12.10;99.90
18218;DHT22;9234;49.344;11.120;2023-10-09T03:37:04;12.10;99.90
18218;DHT22;9234;49.344;11.120;2023-10-09T03:39:33;12.10;99.90
18218;DHT22;9234;49.344;11.120;2023-10-09T03:42:05;12.00;99.90
18218;DHT22;9234;49.344;11.120;2023-10-09T03:44:39;12.00;99.90
18218;DHT22;9234;49.344;11.120;2023-10-09T03:47:11;12.00;99.90
18218;DHT22;9234;49.344;11.120;2023-10-09T03:49:43;12.00;99.90
18218;DHT22;9234;49.344;11.120;2023-10-09T03:52:12;11.90;99.90
18218;DHT22;9234;49.344;11.120;2023-10-09T03:54:44;11.90;99.90
18218;DHT22;9234;49.344;11.120;2023-10-09T03:57:13;11.80;99.90
18218;DHT22;9234;49.344;11.120;2023-10-09T03:59:46;11.80;99.90
18218;DHT22;9234;49.344;11.120;2023-10-09T04:02:15;11.70;99.90
18218;DHT22;9234;49.344;11.120;2023-10-09T04:04:44;11.70;99.90
18218;DHT22;9234;49.344;11.120;2023-10-09T04:07:15;11.70;99.90
18218;DHT22;9234;49.344;11.120;2023-10-09T04:09:43;11.60;99.90
18218;DHT22;9234;49.344;11.120;2023-10-09T04:12:15;11.60;99.90
18218;DHT22;9234;49.344;11.120;2023-10-09T04:14:53;11.60;99.90
18218;DHT22;9234;49.344;11.120;2023-10-09T04:17:25;11.50;99.90
18218;DHT22;9234;49.344;11.120;2023-10-09T04:20:01;11.50;99.90
18218;DHT22;9234;49.344;11.120;2023-10-09T04:22:56;11.40;99.90
18218;DHT22;9234;49.344;11.120;2023-10-09T04:25:32;11.40;99.90
18218;DHT22;9234;49.344;11.120;2023-10-09T04:28:10;11.30;99.90
18218;DHT22;9234;49.344;11.120;2023-10-09T04:30:48;11.30;99.90
18218;DHT22;9234;49.344;11.120;2023-10-09T04:33:22;11.20;99.90
18218;DHT22;9234;49.344;11.120;2023-10-09T04:36:08;11.20;99.90
18218;DHT22;9234;49.344;11.120;2023-10-09T04:38:43;11.20;99.90
18218;DHT22;9234;49.344;11.120;2023-10-09T04:41:23;11.10;99.90
18218;DHT22;9234;49.344;11.120;2023-10-09T04:44:00;11.10;99.90
18218;DHT22;9234;49.344;11.120;2023-10-09T04:46:48;11.00;99.90
18218;DHT22;9234;49.344;11.120;2023-10-09T04:49:31;11.00;99.90
18218;DHT22;9234;49.344;11.120;2023-10-09T04:52:04;10.90;99.90
18218;DHT22;9234;49.344;11.120;2023-10-09T04:54:34;10.90;99.90
18218;DHT22;9234;49.344;11.120;2023-10-09T04:57:26;10.90;99.90
18218;DHT22;9234;49.344;11.120;2023-10-09T04:59:55;10.80;99.90
18218;DHT22;9234;49.344;11.120;2023-10-09T05:02:26;10.80;99.90
18218;DHT22;9234;49.344;11.120;2023-10-09T05:05:04;10.80;99.90
18218;DHT22;9234;49.344;11.120;2023-10-09T05:08:03;10.70;99.90
18218;DHT22;9234;49.344;11.120;2023-10-09T05:10:45;10.70;99.90
18218;DHT22;9234;49.344;11.120;2023-10-09T05:13:33;10.70;99.90
18218;DHT22;9234;49.344;11.120;2023-10-09T05:16:12;10.70;99.90
18218;DHT22;9234;49.344;11.120;2023-10-09T05:18:44;10.60;99.90
18218;DHT22;9234;49.344;11.120;2023-10-09T05:21:23;10.60;99.90
18218;DHT22;9234;49.344;11.120;2023-10-09T05:24:04;10.60;99.90
18218;DHT22;9234;49.344;11.120;2023-10-09T05:26:47;10.50;99.90
18218;DHT22;9234;49.344;11.120;2023-10-09T05:29:21;10.50;99.90
18218;DHT22;9234;49.344;11.120;2023-10-09T05:32:02;10.50;99.90
18218;DHT22;9234;49.344;11.120;2023-10-09T05:34:44;10.40;99.90
18218;DHT22;9234;49.344;11.120;2023-10-09T05:37:28;10.50;99.90
18218;DHT22;9234;49.344;11.120;2023-10-09T05:40:03;10.50;99.90
18218;DHT22;9234;49.344;11.120;2023-10-09T05:42:49;10.50;99.90
18218;DHT22;9234;49.344;11.120;2023-10-09T05:45:26;10.50;99.90
18218;DHT22;9234;49.344;11.120;2023-10-09T05:48:23;10.50;99.90
18218;DHT22;9234;49.344;11.120;2023-10-09T05:51:09;10.60;99.90
18218;DHT22;9234;49.344;11.120;2023-10-09T05:54:00;10.60;99.90
18218;DHT22;9234;49.344;11.120;2023-10-09T05:56:46;10.60;99.90
18218;DHT22;9234;49.344;11.120;2023-10-09T05:59:32;10.60;99.90
18218;DHT22;9234;49.344;11.120;2023-10-09T06:02:14;10.60;99.90
18218;DHT22;9234;49.344;11.120;2023-10-09T06:04:59;10.60;99.90
18218;DHT22;9234;49.344;11.120;2023-10-09T06:07:49;10.60;99.90
18218;DHT22;9234;49.344;11.120;2023-10-09T06:10:31;10.70;99.90
18218;DHT22;9234;49.344;11.120;2023-10-09T06:13:10;10.70;99.90
18218;DHT22;9234;49.344;11.120;2023-10-09T06:15:56;10.80;99.90
18218;DHT22;9234;49.344;11.120;2023-10-09T06:18:41;10.80;99.90
18218;DHT22;9234;49.344;11.120;2023-10-09T06:21:21;10.90;99.90
18218;DHT22;9234;49.344;11.120;2023-10-09T06:24:28;11.00;99.90
18218;DHT22;9234;49.344;11.120;2023-10-09T06:27:09;11.00;99.90
18218;DHT22;9234;49.344;11.120;2023-10-09T06:29:51;11.10;99.90
18218;DHT22;9234;49.344;11.120;2023-10-09T06:32:39;11.20;99.90
18218;DHT22;9234;49.344;11.120;2023-10-09T06:35:18;11.30;99.90
18218;DHT22;9234;49.344;11.120;2023-10-09T06:37:47;11.40;99.90
18218;DHT22;9234;49.344;11.120;2023-10-09T06:40:36;11.50;99.90
18218;DHT22;9234;49.344;11.120;2023-10-09T06:43:23;11.60;99.90
18218;DHT22;9234;49.344;11.120;2023-10-09T06:45:55;11.70;99.90
18218;DHT22;9234;49.344;11.120;2023-10-09T06:48:46;11.80;99.90
18218;DHT22;9234;49.344;11.120;2023-10-09T06:51:23;11.90;99.90
18218;DHT22;9234;49.344;11.120;2023-10-09T06:54:10;12.00;99.90
18218;DHT22;9234;49.344;11.120;2023-10-09T06:56:44;12.10;99.90
18218;DHT22;9234;49.344;11.120;2023-10-09T06:59:30;12.20;99.90
18218;DHT22;9234;49.344;11.120;2023-10-09T07:02:29;12.30;99.90
18218;DHT22;9234;49.344;11.120;2023-10-09T07:05:13;12.40;99.90
18218;DHT22;9234;49.344;11.120;2023-10-09T07:07:44;12.50;99.90
18218;DHT22;9234;49.344;11.120;2023-10-09T07:10:22;12.60;99.90
18218;DHT22;9234;49.344;11.120;2023-10-09T07:13:07;12.70;99.90
18218;DHT22;9234;49.344;11.120;2023-10-09T07:15:35;12.80;99.90
18218;DHT22;9234;49.344;11.120;2023-10-09T07:18:21;12.90;99.90
18218;DHT22;9234;49.344;11.120;2023-10-09T07:21:08;13.00;99.90
18218;DHT22;9234;49.344;11.120;2023-10-09T07:23:44;13.20;99.90
18218;DHT22;9234;49.344;11.120;2023-10-09T07:26:16;13.30;99.90
18218;DHT22;9234;49.344;11.120;2023-10-09T07:28:51;13.40;99.90
18218;DHT22;9234;49.344;11.120;2023-10-09T07:31:28;13.60;99.90
18218;DHT22;9234;49.344;11.120;2023-10-09T07:34:06;13.80;99.90
18218;DHT22;9234;49.344;11.120;2023-10-09T07:36:48;14.00;99.90
18218;DHT22;9234;49.344;11.120;2023-10-09T07:39:23;14.30;99.90
18218;DHT22;9234;49.344;11.120;2023-10-09T07:42:04;14.50;99.90
18218;DHT22;9234;49.344;11.120;2023-10-09T07:44:48;14.70;99.90
18218;DHT22;9234;49.344;11.120;2023-10-09T07:47:21;14.90;99.90
18218;DHT22;9234;49.344;11.120;2023-10-09T07:50:13;15.00;99.90
18218;DHT22;9234;49.344;11.120;2023-10-09T07:52:48;15.20;99.90
18218;DHT22;9234;49.344;11.120;2023-10-09T07:55:17;15.40;99.90
18218;DHT22;9234;49.344;11.120;2023-10-09T07:57:56;15.60;99.90
18218;DHT22;9234;49.344;11.120;2023-10-09T08:00:38;15.80;99.90
18218;DHT22;9234;49.344;11.120;2023-10-09T08:03:34;16.00;99.90
18218;DHT22;9234;49.344;11.120;2023-10-09T08:06:03;16.20;99.90
18218;DHT22;9234;49.344;11.120;2023-10-09T08:08:51;16.40;99.90
18218;DHT22;9234;49.344;11.120;2023-10-09T08:11:34;16.60;99.90
18218;DHT22;9234;49.344;11.120;2023-10-09T08:14:23;16.70;99.90
18218;DHT22;9234;49.344;11.120;2023-10-09T08:17:11;16.90;99.90
18218;DHT22;9234;49.344;11.120;2023-10-09T08:19:45;17.10;99.90
18218;DHT22;9234;49.344;11.120;2023-10-09T08:22:22;17.20;99.90
18218;DHT22;9234;49.344;11.120;2023-10-09T08:25:11;17.40;99.90
18218;DHT22;9234;49.344;11.120;2023-10-09T08:27:55;17.50;99.90
18218;DHT22;9234;49.344;11.120;2023-10-09T08:30:33;17.70;99.90
18218;DHT22;9234;49.344;11.120;2023-10-09T08:33:18;17.80;99.90
18218;DHT22;9234;49.344;11.120;2023-10-09T08:36:24;18.00;99.90
18218;DHT22;9234;49.344;11.120;2023-10-09T08:38:59;18.10;99.90
18218;DHT22;9234;49.344;11.120;2023-10-09T08:41:41;18.20;99.90
18218;DHT22;9234;49.344;11.120;2023-10-09T08:44:12;18.40;99.90
18218;DHT22;9234;49.344;11.120;2023-10-09T08:46:42;18.50;99.90
18218;DHT22;9234;49.344;11.120;2023-10-09T08:49:13;18.60;99.90
18218;DHT22;9234;49.344;11.120;2023-10-09T08:51:42;18.70;99.90
18218;DHT22;9234;49.344;11.120;2023-10-09T08:54:10;18.90;99.90
18218;DHT22;9234;49.344;11.120;2023-10-09T08:56:42;19.00;99.90
18218;DHT22;9234;49.344;11.120;2023-10-09T08:59:17;19.10;99.90
18218;DHT22;9234;49.344;11.120;2023-10-09T09:01:47;19.30;99.90
18218;DHT22;9234;49.344;11.120;2023-10-09T09:04:36;19.40;99.90
18218;DHT22;9234;49.344;11.120;2023-10-09T09:07:22;19.50;99.90
18218;DHT22;9234;49.344;11.120;2023-10-09T09:09:56;19.60;99.90
18218;DHT22;9234;49.344;11.120;2023-10-09T09:12:28;19.70;99.90
18218;DHT22;9234;49.344;11.120;2023-10-09T09:15:13;19.70;99.90
18218;DHT22;9234;49.344;11.120;2023-10-09T09:17:47;19.80;99.90
18218;DHT22;9234;49.344;11.120;2023-10-09T09:20:22;19.90;99.90
18218;DHT22;9234;49.344;11.120;2023-10-09T09:22:57;20.00;99.90
18218;DHT22;9234;49.344;11.120;2023-10-09T09:25:42;20.10;99.60
18218;DHT22;9234;49.344;11.120;2023-10-09T09:28:12;20.20;99.20
18218;DHT22;9234;49.344;11.120;2023-10-09T09:30:46;20.30;99.30
18218;DHT22;9234;49.344;11.120;2023-10-09T09:33:19;20.50;98.20
18218;DHT22;9234;49.344;11.120;2023-10-09T09:36:08;20.50;98.40
18218;DHT22;9234;49.344;11.120;2023-10-09T09:38:38;20.60;98.60
18218;DHT22;9234;49.344;11.120;2023-10-09T09:41:15;20.70;97.70
18218;DHT22;9234;49.344;11.120;2023-10-09T09:43:53;20.80;97.10
18218;DHT22;9234;49.344;11.120;2023-10-09T09:46:24;20.80;96.90
18218;DHT22;9234;49.344;11.120;2023-10-09T09:49:01;20.70;96.60
18218;DHT22;9234;49.344;11.120;2023-10-09T09:51:31;20.70;96.40
18218;DHT22;9234;49.344;11.120;2023-10-09T09:54:01;20.70;96.80
18218;DHT22;9234;49.344;11.120;2023-10-09T09:56:37;20.60;96.80
18218;DHT22;9234;49.344;11.120;2023-10-09T09:59:07;20.60;96.50
18218;DHT22;9234;49.344;11.120;2023-10-09T10:01:41;20.50;96.80
18218;DHT22;9234;49.344;11.120;2023-10-09T10:04:15;20.40;97.30
18218;DHT22;9234;49.344;11.120;2023-10-09T10:06:50;20.40;97.70
18218;DHT22;9234;49.344;11.120;2023-10-09T10:09:34;20.40;98.60
18218;DHT22;9234;49.344;11.120;2023-10-09T10:12:06;20.40;98.90
18218;DHT22;9234;49.344;11.120;2023-10-09T10:14:52;20.50;99.00
18218;DHT22;9234;49.344;11.120;2023-10-09T10:17:24;20.50;98.80
18218;DHT22;9234;49.344;11.120;2023-10-09T10:20:05;20.60;99.20
18218;DHT22;9234;49.344;11.120;2023-10-09T10:23:18;20.60;98.40
18218;DHT22;9234;49.344;11.120;2023-10-09T10:25:52;20.60;98.20
18218;DHT22;9234;49.344;11.120;2023-10-09T10:28:27;20.70;97.90
18218;DHT22;9234;49.344;11.120;2023-10-09T10:31:03;20.70;98.70
18218;DHT22;9234;49.344;11.120;2023-10-09T10:34:04;20.80;98.30
18218;DHT22;9234;49.344;11.120;2023-10-09T10:36:37;20.80;97.50
18218;DHT22;9234;49.344;11.120;2023-10-09T10:39:10;20.90;97.00
18218;DHT22;9234;49.344;11.120;2023-10-09T10:41:57;20.90;96.50
18218;DHT22;9234;49.344;11.120;2023-10-09T10:44:28;20.90;96.20
18218;DHT22;9234;49.344;11.120;2023-10-09T10:47:05;20.80;96.50
18218;DHT22;9234;49.344;11.120;2023-10-09T10:49:51;20.80;96.60
18218;DHT22;9234;49.344;11.120;2023-10-09T10:52:28;20.70;96.50
18218;DHT22;9234;49.344;11.120;2023-10-09T10:55:14;20.70;97.10
18218;DHT22;9234;49.344;11.120;2023-10-09T10:57:58;20.60;97.80
18218;DHT22;9234;49.344;11.120;2023-10-09T11:00:36;20.50;98.20
18218;DHT22;9234;49.344;11.120;2023-10-09T11:03:22;20.50;98.50
18218;DHT22;9234;49.344;11.120;2023-10-09T11:06:00;20.50;99.10
18218;DHT22;9234;49.344;11.120;2023-10-09T11:08:43;20.50;99.30
18218;DHT22;9234;49.344;11.120;2023-10-09T11:11:23;20.50;99.50
18218;DHT22;9234;49.344;11.120;2023-10-09T11:14:08;20.60;99.60
18218;DHT22;9234;49.344;11.120;2023-10-09T11:16:42;20.60;99.30
18218;DHT22;9234;49.344;11.120;2023-10-09T11:19:11;20.70;99.20
18218;DHT22;9234;49.344;11.120;2023-10-09T11:21:51;20.70;99.40
18218;DHT22;9234;49.344;11.120;2023-10-09T11:24:27;20.70;99.10
18218;DHT22;9234;49.344;11.120;2023-10-09T11:27:01;20.70;99.20
18218;DHT22;9234;49.344;11.120;2023-10-09T11:29:33;20.70;98.90
18218;DHT22;9234;49.344;11.120;2023-10-09T11:32:17;20.70;98.80
18218;DHT22;9234;49.344;11.120;2023-10-09T11:34:51;20.80;98.90
18218;DHT22;9234;49.344;11.120;2023-10-09T11:37:36;20.90;98.70
18218;DHT22;9234;49.344;11.120;2023-10-09T11:40:27;21.10;98.90
18218;DHT22;9234;49.344;11.120;2023-10-09T11:43:01;21.30;97.60
18218;DHT22;9234;49.344;11.120;2023-10-09T11:45:37;21.30;97.00
18218;DHT22;9234;49.344;11.120;2023-10-09T11:48:20;21.30;97.10
18218;DHT22;9234;49.344;11.120;2023-10-09T11:50:55;21.20;96.40
18218;DHT22;9234;49.344;11.120;2023-10-09T11:53:40;21.20;96.20
18218;DHT22;9234;49.344;11.120;2023-10-09T11:56:10;21.20;96.60
18218;DHT22;9234;49.344;11.120;2023-10-09T11:58:46;21.10;96.20
18218;DHT22;9234;49.344;11.120;2023-10-09T12:01:17;21.00;96.10
18218;DHT22;9234;49.344;11.120;2023-10-09T12:03:47;21.10;96.60
18218;DHT22;9234;49.344;11.120;2023-10-09T12:06:18;21.10;96.30
18218;DHT22;9234;49.344;11.120;2023-10-09T12:08:50;21.10;96.20
18218;DHT22;9234;49.344;11.120;2023-10-09T12:11:20;20.90;95.80
18218;DHT22;9234;49.344;11.120;2023-10-09T12:13:57;20.80;95.90
18218;DHT22;9234;49.344;11.120;2023-10-09T12:16:27;20.70;96.00
18218;DHT22;9234;49.344;11.120;2023-10-09T12:19:00;20.60;96.40
18218;DHT22;9234;49.344;11.120;2023-10-09T12:21:29;20.50;96.50
18218;DHT22;9234;49.344;11.120;2023-10-09T12:23:57;20.40;96.60
18218;DHT22;9234;49.344;11.120;2023-10-09T12:26:28;20.30;96.50
18218;DHT22;9234;49.344;11.120;2023-10-09T12:29:03;20.20;96.80
18218;DHT22;9234;49.344;11.120;2023-10-09T12:31:37;20.20;97.30
18218;DHT22;9234;49.344;11.120;2023-10-09T12:34:06;20.20;97.30
18218;DHT22;9234;49.344;11.120;2023-10-09T12:36:34;20.10;97.10
18218;DHT22;9234;49.344;11.120;2023-10-09T12:39:04;20.20;97.40
18218;DHT22;9234;49.344;11.120;2023-10-09T12:41:33;20.20;97.60
18218;DHT22;9234;49.344;11.120;2023-10-09T12:44:10;20.20;97.60
18218;DHT22;9234;49.344;11.120;2023-10-09T12:46:42;20.30;97.70
18218;DHT22;9234;49.344;11.120;2023-10-09T12:49:19;20.40;97.50
18218;DHT22;9234;49.344;11.120;2023-10-09T12:51:51;20.60;97.40
18218;DHT22;9234;49.344;11.120;2023-10-09T12:54:20;20.70;97.10
18218;DHT22;9234;49.344;11.120;2023-10-09T12:56:53;20.80;96.90
18218;DHT22;9234;49.344;11.120;2023-10-09T12:59:23;21.00;96.40
18218;DHT22;9234;49.344;11.120;2023-10-09T13:01:52;21.10;96.10
18218;DHT22;9234;49.344;11.120;2023-10-09T13:04:27;21.20;95.50
18218;DHT22;9234;49.344;11.120;2023-10-09T13:06:59;21.30;95.30
18218;DHT22;9234;49.344;11.120;2023-10-09T13:09:31;21.30;95.40
18218;DHT22;9234;49.344;11.120;2023-10-09T13:12:10;21.30;95.10
18218;DHT22;9234;49.344;11.120;2023-10-09T13:14:46;21.30;94.60
18218;DHT22;9234;49.344;11.120;2023-10-09T13:17:16;21.20;94.10
18218;DHT22;9234;49.344;11.120;2023-10-09T13:19:47;21.20;94.40
18218;DHT22;9234;49.344;11.120;2023-10-09T13:22:15;21.20;94.00
18218;DHT22;9234;49.344;11.120;2023-10-09T13:24:44;21.20;94.10
18218;DHT22;9234;49.344;11.120;2023-10-09T13:27:15;21.10;94.10
18218;DHT22;9234;49.344;11.120;2023-10-09T13:29:49;21.10;94.50
18218;DHT22;9234;49.344;11.120;2023-10-09T13:32:18;21.20;93.70
18218;DHT22;9234;49.344;11.120;2023-10-09T13:34:47;21.20;93.60
18218;DHT22;9234;49.344;11.120;2023-10-09T13:37:16;21.20;93.70
18218;DHT22;9234;49.344;11.120;2023-10-09T13:39:48;21.30;93.60
18218;DHT22;9234;49.344;11.120;2023-10-09T13:42:20;21.30;93.50
18218;DHT22;9234;49.344;11.120;2023-10-09T13:44:53;21.30;93.30
18218;DHT22;9234;49.344;11.120;2023-10-09T13:47:22;21.30;93.00
18218;DHT22;9234;49.344;11.120;2023-10-09T13:49:59;21.20;92.40
18218;DHT22;9234;49.344;11.120;2023-10-09T13:52:27;21.20;92.50
18218;DHT22;9234;49.344;11.120;2023-10-09T13:54:57;21.30;92.00
18218;DHT22;9234;49.344;11.120;2023-10-09T13:57:42;21.30;92.00
18218;DHT22;9234;49.344;11.120;2023-10-09T14:00:14;21.30;92.40
18218;DHT22;9234;49.344;11.120;2023-10-09T14:02:46;21.40;92.00
18218;DHT22;9234;49.344;11.120;2023-10-09T14:05:18;21.50;91.80
18218;DHT22;9234;49.344;11.120;2023-10-09T14:07:47;21.60;91.90
18218;DHT22;9234;49.344;11.120;2023-10-09T14:10:15;21.70;91.80
18218;DHT22;9234;49.344;11.120;2023-10-09T14:12:45;21.70;91.00
18218;DHT22;9234;49.344;11.120;2023-10-09T14:15:14;21.70;90.90
18218;DHT22;9234;49.344;11.120;2023-10-09T14:17:44;21.70;90.40
18218;DHT22;9234;49.344;11.120;2023-10-09T14:20:14;21.70;90.60
18218;DHT22;9234;49.344;11.120;2023-10-09T14:22:59;21.80;90.70
18218;DHT22;9234;49.344;11.120;2023-10-09T14:25:33;21.80;90.30
18218;DHT22;9234;49.344;11.120;2023-10-09T14:28:05;21.90;88.90
18218;DHT22;9234;49.344;11.120;2023-10-09T14:30:37;21.90;86.00
18218;DHT22;9234;49.344;11.120;2023-10-09T14:33:09;21.80;86.30
18218;DHT22;9234;49.344;11.120;2023-10-09T14:35:41;21.80;86.40
18218;DHT22;9234;49.344;11.120;2023-10-09T14:38:11;21.70;86.70
18218;DHT22;9234;49.344;11.120;2023-10-09T14:40:43;21.70;86.00
18218;DHT22;9234;49.344;11.120;2023-10-09T14:43:12;21.70;86.80
18218;DHT22;9234;49.344;11.120;2023-10-09T14:45:48;21.60;85.50
18218;DHT22;9234;49.344;11.120;2023-10-09T14:48:20;21.60;84.30
18218;DHT22;9234;49.344;11.120;2023-10-09T14:50:53;21.60;83.90
18218;DHT22;9234;49.344;11.120;2023-10-09T14:53:22;21.60;82.50
18218;DHT22;9234;49.344;11.120;2023-10-09T14:55:56;21.50;82.00
18218;DHT22;9234;49.344;11.120;2023-10-09T14:58:26;21.50;82.90
18218;DHT22;9234;49.344;11.120;2023-10-09T15:01:06;21.50;83.00
18218;DHT22;9234;49.344;11.120;2023-10-09T15:03:37;21.50;83.00
18218;DHT22;9234;49.344;11.120;2023-10-09T15:06:06;21.40;84.50
18218;DHT22;9234;49.344;11.120;2023-10-09T15:08:38;21.30;85.90
18218;DHT22;9234;49.344;11.120;2023-10-09T15:11:06;21.30;87.00
18218;DHT22;9234;49.344;11.120;2023-10-09T15:13:35;21.20;87.10
18218;DHT22;9234;49.344;11.120;2023-10-09T15:16:07;21.20;87.60
18218;DHT22;9234;49.344;11.120;2023-10-09T15:18:37;21.10;87.70
18218;DHT22;9234;49.344;11.120;2023-10-09T15:21:06;21.00;87.80
18218;DHT22;9234;49.344;11.120;2023-10-09T15:23:35;21.00;87.70
18218;DHT22;9234;49.344;11.120;2023-10-09T15:26:04;20.90;88.20
18218;DHT22;9234;49.344;11.120;2023-10-09T15:28:33;20.90;88.80
18218;DHT22;9234;49.344;11.120;2023-10-09T15:31:02;20.80;89.70
18218;DHT22;9234;49.344;11.120;2023-10-09T15:33:32;20.70;90.30
18218;DHT22;9234;49.344;11.120;2023-10-09T15:36:10;20.70;90.50
18218;DHT22;9234;49.344;11.120;2023-10-09T15:38:39;20.60;90.90
18218;DHT22;9234;49.344;11.120;2023-10-09T15:41:08;20.50;91.20
18218;DHT22;9234;49.344;11.120;2023-10-09T15:43:36;20.40;91.80
18218;DHT22;9234;49.344;11.120;2023-10-09T15:46:11;20.30;92.10
18218;DHT22;9234;49.344;11.120;2023-10-09T15:48:43;20.30;93.00
18218;DHT22;9234;49.344;11.120;2023-10-09T15:51:15;20.20;93.00
18218;DHT22;9234;49.344;11.120;2023-10-09T15:53:44;20.20;93.20
18218;DHT22;9234;49.344;11.120;2023-10-09T15:56:14;20.10;93.40
18218;DHT22;9234;49.344;11.120;2023-10-09T15:58:44;20.00;93.80
18218;DHT22;9234;49.344;11.120;2023-10-09T16:01:15;20.00;94.10
18218;DHT22;9234;49.344;11.120;2023-10-09T16:03:47;19.90;94.30
18218;DHT22;9234;49.344;11.120;2023-10-09T16:06:17;19.90;94.60
18218;DHT22;9234;49.344;11.120;2023-10-09T16:08:47;19.80;94.80
18218;DHT22;9234;49.344;11.120;2023-10-09T16:11:18;19.70;95.10
18218;DHT22;9234;49.344;11.120;2023-10-09T16:13:50;19.60;95.20
18218;DHT22;9234;49.344;11.120;2023-10-09T16:16:27;19.60;95.50
18218;DHT22;9234;49.344;11.120;2023-10-09T16:18:57;19.50;95.70
18218;DHT22;9234;49.344;11.120;2023-10-09T16:21:26;19.50;95.90
18218;DHT22;9234;49.344;11.120;2023-10-09T16:23:54;19.40;96.10